Time;durP1;ratioP1;P1;durP2;ratioP2;P2;SDS_P1;SDS_P2;PMS_P1;PMS_P2;Temp;Humidity;BMP_temperature;BMP_pressure;BME280_temperature;BME280_humidity;BME280_pressure;Samples;Min_cycle;Max_cycle;Signal;HPM_P1;HPM_P2
2022/01/14 00:00:06;;;;;;;58.65;29.30;;;;;;;7.29;52.31;102432.31;5073642;28;20413;-76
2022/01/14 00:02:32;;;;;;;63.20;28.75;;;;;;;7.42;52.27;102435.94;5074795;28;20119;-75
2022/01/14 00:04:59;;;;;;;63.08;29.70;;;;;;;6.97;52.70;102427.19;5076546;28;20127;-75
2022/01/14 00:07:26;;;;;;;63.28;29.02;;;;;;;7.61;51.79;102423.13;5078430;28;20044;-76
2022/01/14 00:09:54;;;;;;;60.55;28.75;;;;;;;7.18;52.54;102431.19;5079695;28;20052;-75
2022/01/14 00:12:26;;;;;;;62.00;29.38;;;;;;;7.72;51.06;102426.91;5078899;28;20427;-75
2022/01/14 00:15:23;;;;;;;57.45;28.75;;;;;;;7.73;51.17;102432.16;5078046;28;20119;-75
2022/01/14 00:17:44;;;;;;;64.80;29.20;;;;;;;7.23;52.30;102419.38;5076260;28;20409;-75
2022/01/14 00:20:11;;;;;;;65.95;28.88;;;;;;;7.36;52.10;102433.66;5078407;28;20506;-75
2022/01/14 00:22:38;;;;;;;65.93;29.40;;;;;;;7.57;51.69;102432.31;5077040;28;20124;-75
2022/01/14 00:33:08;;;;;;;65.57;27.88;;;;;;;7.41;51.83;102423.53;5077487;28;20036;-75
2022/01/14 00:35:38;;;;;;;62.28;28.45;;;;;;;7.65;51.88;102419.28;5060592;28;20105;-75
2022/01/14 00:38:04;;;;;;;65.72;30.48;;;;;;;7.89;50.83;102413.34;5079154;28;20044;-75
2022/01/14 00:40:32;;;;;;;55.72;28.48;;;;;;;7.44;52.16;102426.03;5080494;28;20068;-75
2022/01/14 00:42:59;;;;;;;65.68;30.05;;;;;;;7.64;51.85;102412.25;5035395;28;20044;-75
2022/01/14 00:45:25;;;;;;;70.10;29.27;;;;;;;7.29;52.76;102424.31;5077845;28;20129;-75
2022/01/14 00:47:52;;;;;;;57.85;29.08;;;;;;;7.33;52.55;102420.53;5079088;28;20116;-75
2022/01/14 00:50:19;;;;;;;64.22;30.42;;;;;;;7.43;52.29;102418.97;5078621;28;20108;-75
2022/01/14 00:52:46;;;;;;;66.43;29.23;;;;;;;7.50;52.12;102430.97;5077954;28;20079;-75
2022/01/14 00:55:16;;;;;;;57.25;28.40;;;;;;;7.36;52.83;102423.84;5076966;28;20119;-75
2022/01/14 01:00:25;;;;;;;59.70;28.05;;;;;;;8.06;50.92;102420.25;5076577;28;20051;-75
2022/01/14 01:02:52;;;;;;;70.15;31.42;;;;;;;7.83;51.33;102427.06;5076482;28;20055;-75
2022/01/14 01:05:19;;;;;;;57.25;28.02;;;;;;;7.42;52.13;102420.75;5077366;28;20049;-75
2022/01/14 01:08:02;;;;;;;58.30;28.77;;;;;;;7.31;52.92;102422.41;5077682;28;20048;-75
2022/01/14 01:10:30;;;;;;;59.85;28.67;;;;;;;7.32;52.65;102419.63;5077043;28;20102;-75
2022/01/14 01:13:05;;;;;;;60.88;29.13;;;;;;;7.96;51.16;102421.81;5079469;28;20128;-75
2022/01/14 01:15:31;;;;;;;57.25;27.98;;;;;;;7.56;52.46;102419.88;5078674;28;20120;-75
2022/01/14 01:17:58;;;;;;;56.05;29.35;;;;;;;7.86;51.62;102416.22;5077852;28;20045;-75
2022/01/14 01:20:24;;;;;;;67.38;30.63;;;;;;;7.62;51.96;102415.97;5079185;28;20483;-75
2022/01/14 01:22:53;;;;;;;69.70;30.80;;;;;;;7.58;51.90;102417.97;5078618;28;20508;-75
2022/01/14 01:25:24;;;;;;;66.85;31.25;;;;;;;7.37;53.12;102414.88;5079182;28;20052;-76
2022/01/14 01:27:53;;;;;;;64.43;30.25;;;;;;;7.62;52.18;102414.16;5078336;28;20068;-75
2022/01/14 01:30:49;;;;;;;72.80;29.95;;;;;;;7.49;52.93;102410.56;5077589;28;20071;-75
2022/01/14 01:33:13;;;;;;;60.40;30.67;;;;;;;7.67;52.45;102413.84;5076688;28;20064;-75
2022/01/14 01:35:40;;;;;;;67.72;31.33;;;;;;;7.45;52.53;102411.72;5077327;28;20127;-75
2022/01/14 01:38:06;;;;;;;67.35;32.85;;;;;;;6.92;54.30;102415.97;5077011;28;20079;-75
2022/01/14 01:40:35;;;;;;;73.97;32.17;;;;;;;7.49;52.70;102421.22;5077166;28;20068;-75
2022/01/14 01:43:03;;;;;;;68.90;31.67;;;;;;;7.42;52.89;102407.41;5077137;28;20127;-76
2022/01/14 01:45:30;;;;;;;73.65;32.67;;;;;;;7.48;52.65;102410.66;5076856;28;20501;-76
2022/01/14 01:47:56;;;;;;;67.95;30.77;;;;;;;7.37;52.69;102412.22;5077133;28;20071;-76
2022/01/14 01:50:29;;;;;;;73.28;31.77;;;;;;;7.54;52.10;102405.78;5077994;28;20056;-75
2022/01/14 01:52:56;;;;;;;61.70;29.98;;;;;;;7.72;52.32;102400.22;5076980;28;20056;-75
2022/01/14 01:55:24;;;;;;;67.78;31.70;;;;;;;7.76;51.98;102404.38;5078042;28;20144;-75
2022/01/14 01:57:52;;;;;;;66.63;31.77;;;;;;;8.21;50.90;102394.28;5078159;28;20032;-76
2022/01/14 02:00:22;;;;;;;65.63;30.40;;;;;;;7.92;51.61;102398.94;5078087;28;20074;-75
2022/01/14 02:02:50;;;;;;;73.10;30.65;;;;;;;7.86;51.62;102389.50;5077060;28;20122;-75
2022/01/14 02:08:57;;;;;;;65.47;29.40;;;;;;;8.14;51.32;102397.38;5078039;28;20044;-75
2022/01/14 02:11:24;;;;;;;64.28;30.10;;;;;;;7.51;52.73;102397.97;5078074;28;20072;-75
2022/01/14 02:13:54;;;;;;;65.68;30.98;;;;;;;7.80;52.47;102398.72;5077213;28;20090;-75
2022/01/14 02:16:33;;;;;;;73.45;31.80;;;;;;;7.65;52.59;102387.25;5076439;28;20052;-75
2022/01/14 02:19:23;;;;;;;67.05;32.88;;;;;;;7.49;53.13;102386.50;5076659;28;20123;-75
2022/01/14 02:22:10;;;;;;;76.50;31.92;;;;;;;7.57;52.68;102400.25;5075678;28;20072;-75
2022/01/14 02:27:12;;;;;;;75.40;33.58;;;;;;;8.14;51.45;102393.84;5075693;28;20080;-76
2022/01/14 02:29:38;;;;;;;72.95;33.20;;;;;;;7.98;52.13;102388.66;5077467;28;20083;-75
2022/01/14 02:32:05;;;;;;;74.70;31.92;;;;;;;8.13;52.07;102395.66;5077460;28;20112;-75
2022/01/14 02:34:32;;;;;;;79.10;32.85;;;;;;;7.77;52.25;102390.06;5075564;28;20075;-75
2022/01/14 02:36:59;;;;;;;83.20;33.15;;;;;;;7.79;52.74;102391.69;5076898;28;20066;-75
2022/01/14 02:39:25;;;;;;;79.18;33.10;;;;;;;7.78;52.69;102375.75;5077240;28;20044;-75
2022/01/14 02:41:52;;;;;;;76.18;34.35;;;;;;;7.45;53.83;102385.00;5077612;28;20117;-75
2022/01/14 02:44:26;;;;;;;77.63;33.65;;;;;;;7.75;53.32;102367.94;5058722;28;20108;-75
2022/01/14 02:46:56;;;;;;;74.55;34.13;;;;;;;7.88;52.99;102361.72;5077745;28;20127;-75
2022/01/14 02:49:30;;;;;;;76.88;33.47;;;;;;;7.93;52.82;102365.91;5077248;28;20079;-75
2022/01/14 02:52:02;;;;;;;72.70;33.10;;;;;;;7.92;52.87;102370.38;5076533;28;20108;-75
2022/01/14 02:54:40;;;;;;;81.18;34.30;;;;;;;7.95;52.48;102364.84;5076802;28;20067;-76
2022/01/14 02:57:13;;;;;;;74.65;32.90;;;;;;;7.06;55.45;102361.72;5075180;28;20052;-75
2022/01/14 02:59:40;;;;;;;80.85;34.75;;;;;;;7.34;54.56;102355.47;5058358;28;20056;-75
2022/01/14 03:02:09;;;;;;;75.40;33.60;;;;;;;7.75;53.67;102354.59;5074784;28;20075;-76
2022/01/14 03:04:39;;;;;;;80.72;34.58;;;;;;;7.80;53.62;102349.78;5074871;28;20131;-76
2022/01/14 03:07:08;;;;;;;79.00;33.58;;;;;;;7.48;54.55;102346.56;5075226;28;20436;-75
2022/01/14 03:09:36;;;;;;;76.18;34.75;;;;;;;7.73;53.69;102356.50;5074992;28;20123;-75
2022/01/14 03:12:04;;;;;;;77.78;34.97;;;;;;;7.62;54.54;102354.53;5076083;28;20064;-76
2022/01/14 03:14:31;;;;;;;81.97;34.28;;;;;;;7.70;54.42;102351.34;5075710;28;20046;-76
2022/01/14 03:16:59;;;;;;;78.75;34.70;;;;;;;7.83;54.15;102347.75;5075331;28;20507;-76
2022/01/14 03:19:27;;;;;;;87.15;33.88;;;;;;;7.94;53.87;102348.88;5076477;28;20060;-76
2022/01/14 03:22:06;;;;;;;79.50;35.03;;;;;;;7.65;54.77;102347.19;5074799;28;20173;-76
2022/01/14 03:27:03;;;;;;;80.55;37.28;;;;;;;7.10;56.60;102333.88;5074704;28;20485;-75
2022/01/14 03:29:30;;;;;;;90.38;37.63;;;;;;;6.91;57.17;102328.84;5075150;28;20477;-76
2022/01/14 03:31:57;;;;;;;88.15;37.22;;;;;;;7.55;55.57;102335.38;5074912;28;20071;-76
2022/01/14 03:34:23;;;;;;;82.85;37.33;;;;;;;7.47;55.76;102336.84;5075117;28;20055;-77
2022/01/14 03:36:50;;;;;;;93.25;39.08;;;;;;;7.48;55.68;102326.06;5076887;28;20064;-75
2022/01/14 03:39:17;;;;;;;87.07;35.65;;;;;;;7.59;55.55;102328.03;5074314;28;20071;-75
2022/01/14 03:41:45;;;;;;;83.93;34.03;;;;;;;7.47;56.17;102316.34;5075193;28;20123;-76
2022/01/14 03:44:11;;;;;;;84.20;34.80;;;;;;;7.59;55.57;102310.19;5076000;28;20047;-76
2022/01/14 03:46:38;;;;;;;83.00;35.60;;;;;;;7.89;54.92;102317.16;5074860;28;20064;-76
2022/01/14 03:49:04;;;;;;;80.05;35.03;;;;;;;7.81;54.38;102316.75;5058528;28;20104;-75
2022/01/14 03:51:33;;;;;;;80.72;35.35;;;;;;;7.86;54.37;102315.53;5075442;28;20044;-75
2022/01/14 03:54:00;;;;;;;82.63;35.75;;;;;;;7.67;55.45;102307.00;5076418;28;20489;-75
2022/01/14 03:56:26;;;;;;;73.85;35.35;;;;;;;7.52;55.98;102300.88;5075096;28;20441;-75
2022/01/14 03:58:54;;;;;;;76.75;34.45;;;;;;;7.02;57.20;102301.50;5076679;28;20045;-75
2022/01/14 04:01:21;;;;;;;80.47;34.72;;;;;;;7.19;57.42;102301.28;5076240;28;20056;-75
2022/01/14 04:03:49;;;;;;;77.75;35.55;;;;;;;7.03;57.86;102287.19;5074777;28;20048;-77
2022/01/14 04:06:16;;;;;;;73.32;34.10;;;;;;;7.50;56.63;102283.22;5075175;28;20069;-76
2022/01/14 04:08:43;;;;;;;71.85;33.85;;;;;;;7.13;57.52;102286.50;5075200;28;20041;-76
2022/01/14 04:11:11;;;;;;;78.90;34.42;;;;;;;7.43;56.75;102286.31;5074419;28;20068;-76
2022/01/14 04:16:10;;;;;;;64.75;33.35;;;;;;;7.02;57.83;102291.69;5073891;28;20048;-75
2022/01/14 04:18:36;;;;;;;67.95;33.50;;;;;;;6.70;59.14;102283.94;5075512;28;20064;-75
2022/01/14 04:21:03;;;;;;;77.60;34.05;;;;;;;6.83;58.99;102277.78;5075299;28;20067;-75
2022/01/14 04:23:30;;;;;;;75.30;33.90;;;;;;;7.77;55.85;102277.84;5076876;28;20107;-76
2022/01/14 04:25:57;;;;;;;76.70;35.47;;;;;;;7.06;57.43;102273.66;5075162;28;20495;-76
2022/01/14 04:28:32;;;;;;;72.22;34.35;;;;;;;7.28;57.57;102273.97;5073742;28;20072;-76
2022/01/14 04:30:59;;;;;;;71.07;35.10;;;;;;;6.90;58.65;102271.97;5074169;28;20041;-75
2022/01/14 04:33:28;;;;;;;70.80;34.72;;;;;;;6.84;58.94;102272.38;5073478;28;20108;-75
2022/01/14 04:35:58;;;;;;;75.72;34.58;;;;;;;7.26;57.82;102272.38;5074616;28;20108;-75
2022/01/14 04:38:26;;;;;;;76.07;33.78;;;;;;;7.52;57.14;102273.31;5073800;28;20071;-76
2022/01/14 04:40:53;;;;;;;73.03;32.55;;;;;;;7.56;56.80;102275.66;5073736;28;21001;-76
2022/01/14 04:43:21;;;;;;;81.57;35.47;;;;;;;7.26;57.06;102269.72;5074350;28;20048;-76
2022/01/14 04:46:23;;;;;;;77.25;35.10;;;;;;;7.11;57.74;102260.88;5072955;28;20064;-76
2022/01/14 04:48:44;;;;;;;83.68;35.30;;;;;;;7.14;57.80;102256.19;5072839;28;20033;-76
2022/01/14 04:51:11;;;;;;;74.63;32.85;;;;;;;7.34;57.62;102248.69;5075761;28;20064;-76
2022/01/14 04:53:38;;;;;;;78.60;34.95;;;;;;;7.44;56.97;102260.47;5076580;28;20484;-76
2022/01/14 04:56:05;;;;;;;72.25;36.03;;;;;;;7.30;57.35;102255.19;5076701;28;20068;-76
2022/01/14 04:58:32;;;;;;;76.97;34.00;;;;;;;6.96;58.02;102244.03;5060836;28;20049;-76
2022/01/14 05:00:59;;;;;;;73.30;36.10;;;;;;;6.96;58.41;102230.72;5078328;28;20048;-76
2022/01/14 05:03:25;;;;;;;69.60;35.92;;;;;;;7.12;58.04;102234.09;5077973;28;20555;-76
2022/01/14 05:05:56;;;;;;;76.30;35.55;;;;;;;7.36;57.15;102220.94;5079561;28;20078;-76
2022/01/14 05:08:26;;;;;;;78.53;36.17;;;;;;;6.97;58.33;102231.56;5079449;28;20059;-76
2022/01/14 05:13:24;;;;;;;68.07;34.45;;;;;;;7.07;58.68;102230.00;5079446;28;20116;-76
2022/01/14 05:15:53;;;;;;;80.72;35.85;;;;;;;6.62;59.89;102221.34;5078859;28;20045;-76
2022/01/14 05:18:20;;;;;;;79.60;37.03;;;;;;;6.88;58.65;102222.34;5078412;28;20049;-76
2022/01/14 05:20:47;;;;;;;69.97;35.47;;;;;;;6.89;58.74;102218.72;5077492;28;20556;-76
2022/01/14 05:23:13;;;;;;;74.45;35.78;;;;;;;6.95;58.57;102219.19;5076716;28;20052;-76
2022/01/14 05:25:40;;;;;;;75.35;36.40;;;;;;;7.30;57.65;102220.50;5076737;28;20471;-76
2022/01/14 05:28:07;;;;;;;80.47;37.22;;;;;;;7.19;58.12;102230.06;5078367;28;20170;-76
2022/01/14 05:30:33;;;;;;;82.75;38.25;;;;;;;7.18;58.01;102224.81;5078027;28;20072;-76
2022/01/14 05:33:00;;;;;;;82.30;37.08;;;;;;;7.33;57.04;102226.47;5078245;28;20041;-76
2022/01/14 05:35:28;;;;;;;95.20;39.13;;;;;;;7.12;57.61;102228.75;5078198;28;20060;-75
2022/01/14 05:37:54;;;;;;;83.97;37.83;;;;;;;7.05;58.05;102221.22;5076988;28;20112;-75
2022/01/14 05:40:23;;;;;;;81.05;36.50;;;;;;;7.15;57.82;102217.00;5075457;28;20048;-73
2022/01/14 05:42:51;;;;;;;84.22;39.25;;;;;;;6.62;59.19;102224.88;5076226;28;20079;-72
2022/01/14 05:45:18;;;;;;;93.85;40.60;;;;;;;7.18;57.79;102224.81;5075534;28;20119;-74
2022/01/14 05:47:44;;;;;;;94.50;40.58;;;;;;;6.94;58.01;102219.25;5076346;28;20504;-73
2022/01/14 05:50:13;;;;;;;93.13;40.30;;;;;;;7.21;57.17;102208.59;5076665;28;20079;-74
2022/01/14 05:52:40;;;;;;;101.25;41.95;;;;;;;7.46;56.78;102223.81;5074555;28;20048;-74
2022/01/14 05:55:09;;;;;;;108.20;41.88;;;;;;;6.76;58.39;102215.97;5076618;28;20075;-74
2022/01/14 05:57:38;;;;;;;99.63;43.13;;;;;;;7.25;57.04;102214.59;5076626;28;20067;-73
2022/01/14 06:00:10;;;;;;;102.93;45.83;;;;;;;6.71;58.16;102216.28;5076255;28;20098;-72
2022/01/14 06:02:37;;;;;;;108.78;41.80;;;;;;;7.34;56.47;102217.50;5076038;28;20128;-72
2022/01/14 06:05:04;;;;;;;111.90;43.15;;;;;;;7.15;57.03;102207.22;5076170;28;20053;-72
2022/01/14 06:07:30;;;;;;;109.85;46.15;;;;;;;6.87;58.24;102212.63;5076984;28;20049;-73
2022/01/14 06:09:57;;;;;;;118.63;46.25;;;;;;;6.64;58.62;102209.63;5076589;28;20047;-72
2022/01/14 06:12:23;;;;;;;115.65;45.67;;;;;;;7.46;55.46;102209.63;5076602;28;20432;-73
2022/01/14 06:14:50;;;;;;;112.38;44.45;;;;;;;7.43;56.22;102206.22;5077935;28;20107;-73
2022/01/14 06:17:17;;;;;;;115.10;46.42;;;;;;;6.87;57.23;102200.13;5075803;28;20044;-73
2022/01/14 06:19:43;;;;;;;122.22;46.00;;;;;;;6.65;58.11;102200.66;5074964;28;20044;-73
2022/01/14 06:22:09;;;;;;;117.43;46.40;;;;;;;6.36;58.68;102199.03;5075716;28;20044;-72
2022/01/14 06:24:36;;;;;;;120.38;48.28;;;;;;;6.83;57.91;102205.78;5076501;28;20383;-72
2022/01/14 06:27:03;;;;;;;129.23;48.17;;;;;;;6.63;58.04;102207.06;5076719;28;20087;-72
2022/01/14 06:29:29;;;;;;;129.57;47.90;;;;;;;6.66;57.75;102205.03;5076876;28;20048;-73
2022/01/14 06:31:56;;;;;;;114.55;46.45;;;;;;;6.52;58.61;102205.06;5077531;28;20519;-74
2022/01/14 06:34:22;;;;;;;126.10;48.03;;;;;;;6.92;57.32;102195.38;5070053;28;20044;-73
2022/01/14 06:36:49;;;;;;;123.93;46.78;;;;;;;6.98;56.82;102198.56;5076353;28;20064;-73
2022/01/14 06:39:15;;;;;;;123.95;45.97;;;;;;;7.27;55.80;102215.34;5076587;28;20132;-73
2022/01/14 06:41:42;;;;;;;114.43;46.28;;;;;;;6.99;56.40;102210.97;5076506;28;20127;-72
2022/01/14 06:44:08;;;;;;;118.15;44.88;;;;;;;7.12;56.08;102223.41;5078540;28;20130;-73
2022/01/14 06:46:35;;;;;;;110.45;44.65;;;;;;;7.60;54.61;102229.13;5076146;28;20053;-73
2022/01/14 06:49:02;;;;;;;123.22;46.72;;;;;;;7.04;56.39;102223.03;5076294;28;20127;-72
2022/01/14 06:51:28;;;;;;;113.90;43.05;;;;;;;6.99;56.49;102230.50;5075112;28;20068;-75
2022/01/14 06:53:55;;;;;;;110.55;42.95;;;;;;;7.31;55.33;102235.53;5076103;28;20970;-75
2022/01/14 06:56:21;;;;;;;91.85;41.33;;;;;;;6.81;56.54;102240.56;5077054;28;20147;-74
2022/01/14 06:58:48;;;;;;;118.10;41.63;;;;;;;7.48;54.73;102253.97;5077500;28;20044;-74
2022/01/14 07:01:14;;;;;;;100.45;41.58;;;;;;;7.13;55.32;102246.47;5057231;28;20103;-75
2022/01/14 07:03:41;;;;;;;94.68;39.28;;;;;;;7.06;55.96;102238.97;5076266;28;20055;-75
2022/01/14 07:06:08;;;;;;;103.80;40.15;;;;;;;6.62;56.86;102240.00;5075427;28;20127;-75
2022/01/14 07:08:35;;;;;;;87.80;38.42;;;;;;;7.12;55.15;102242.09;5075328;28;20044;-75
2022/01/14 07:11:02;;;;;;;88.90;38.13;;;;;;;6.85;56.43;102246.56;5074636;28;20055;-75
2022/01/14 07:13:28;;;;;;;91.10;38.63;;;;;;;7.03;56.00;102240.03;5075263;28;20485;-77
2022/01/14 07:15:58;;;;;;;97.78;37.03;;;;;;;7.41;54.85;102233.97;5073780;28;20040;-73
2022/01/14 07:18:25;;;;;;;91.63;36.10;;;;;;;7.86;53.04;102234.50;5066600;28;20408;-73
2022/01/14 07:20:51;;;;;;;84.15;36.28;;;;;;;8.02;52.70;102232.50;5066641;28;20076;-76
2022/01/14 07:23:18;;;;;;;81.38;35.25;;;;;;;7.91;52.91;102232.38;5076266;28;20133;-76
2022/01/14 07:25:44;;;;;;;81.63;34.13;;;;;;;7.20;54.79;102236.25;5075347;28;20080;-76
2022/01/14 07:28:11;;;;;;;80.20;32.25;;;;;;;7.31;54.64;102236.38;5075493;28;20030;-75
2022/01/14 07:30:38;;;;;;;68.10;32.83;;;;;;;7.11;54.86;102235.03;5075252;28;20127;-75
2022/01/14 07:33:04;;;;;;;74.38;33.97;;;;;;;7.10;55.05;102225.31;5056068;28;20044;-74
2022/01/14 07:35:31;;;;;;;78.57;32.97;;;;;;;7.33;54.43;102222.97;5074145;28;20120;-74
2022/01/14 07:37:57;;;;;;;74.47;32.03;;;;;;;7.42;54.36;102228.50;5074848;28;20066;-75
2022/01/14 07:40:24;;;;;;;73.90;32.15;;;;;;;7.25;55.17;102217.25;5074893;28;20051;-77
2022/01/14 07:42:50;;;;;;;84.65;33.30;;;;;;;7.09;55.63;102225.44;5072962;28;20051;-77
2022/01/14 07:45:17;;;;;;;71.03;31.20;;;;;;;7.33;54.51;102242.50;5076219;28;20072;-73
2022/01/14 07:47:43;;;;;;;77.30;34.70;;;;;;;7.58;53.85;102232.84;5073949;28;20040;-74
2022/01/14 07:50:10;;;;;;;77.30;32.67;;;;;;;7.35;53.92;102229.03;5073453;28;20048;-73
2022/01/14 07:52:36;;;;;;;68.78;31.08;;;;;;;7.58;53.61;102230.16;5073339;28;20044;-73
2022/01/14 07:55:04;;;;;;;80.22;32.08;;;;;;;7.31;55.26;102227.53;5055897;28;20098;-73
2022/01/14 07:57:30;;;;;;;72.85;31.45;;;;;;;7.21;54.86;102232.63;5073994;28;20040;-73
2022/01/14 07:59:57;;;;;;;74.20;31.48;;;;;;;7.31;54.63;102222.19;5074879;28;20084;-74
2022/01/14 08:02:25;;;;;;;59.30;30.10;;;;;;;7.58;54.15;102223.00;5075094;28;20127;-75
2022/01/14 08:04:52;;;;;;;67.03;31.55;;;;;;;7.59;53.91;102213.19;5075161;28;20036;-74
2022/01/14 08:07:22;;;;;;;68.45;29.15;;;;;;;7.51;54.22;102211.03;5074319;28;20078;-74
2022/01/14 08:09:52;;;;;;;60.13;27.98;;;;;;;7.63;53.64;102223.53;5074336;28;20044;-74
2022/01/14 08:12:18;;;;;;;62.45;30.10;;;;;;;7.63;54.03;102223.53;5073119;28;20123;-74
2022/01/14 08:14:45;;;;;;;66.10;30.25;;;;;;;7.28;54.91;102222.41;5073855;28;20075;-74
2022/01/14 08:17:14;;;;;;;74.93;29.92;;;;;;;7.26;55.17;102209.16;5073390;28;20143;-76
2022/01/14 08:19:41;;;;;;;74.43;30.52;;;;;;;7.64;53.97;102219.06;5073427;28;20448;-76
2022/01/14 08:22:08;;;;;;;80.05;31.20;;;;;;;7.77;53.85;102219.06;5073271;28;20556;-76
2022/01/14 08:24:36;;;;;;;68.97;30.25;;;;;;;7.84;53.55;102218.56;5075032;28;20211;-76
2022/01/14 08:27:05;;;;;;;68.97;28.10;;;;;;;7.97;53.62;102210.56;5077476;28;20048;-76
2022/01/14 08:29:33;;;;;;;76.20;30.92;;;;;;;7.28;55.34;102209.91;5078395;28;20048;-76
2022/01/14 08:32:00;;;;;;;73.13;30.58;;;;;;;7.16;55.68;102208.91;5078057;28;20550;-76
2022/01/14 08:34:27;;;;;;;71.20;30.63;;;;;;;7.33;55.56;102214.94;5077360;28;20076;-76
2022/01/14 08:36:54;;;;;;;76.38;29.85;;;;;;;7.37;54.86;102211.09;5079077;28;20040;-76
2022/01/14 08:39:20;;;;;;;69.68;30.52;;;;;;;7.74;54.27;102213.94;5078294;28;20135;-76
2022/01/14 08:41:47;;;;;;;75.63;30.60;;;;;;;7.40;54.81;102214.44;5078106;28;20082;-75
2022/01/14 08:44:14;;;;;;;68.97;31.13;;;;;;;7.08;56.26;102213.88;5079369;28;20048;-75
2022/01/14 08:46:48;;;;;;;67.93;31.30;;;;;;;7.21;55.54;102210.41;5078322;28;20094;-76
2022/01/14 08:49:15;;;;;;;75.90;30.67;;;;;;;7.02;56.15;102211.63;5078610;28;20056;-76
2022/01/14 08:51:42;;;;;;;73.90;31.25;;;;;;;7.94;53.94;102210.78;5079873;28;20049;-76
2022/01/14 08:54:09;;;;;;;77.35;30.52;;;;;;;7.24;55.11;102212.88;5079102;28;20131;-75
2022/01/14 08:56:36;;;;;;;70.38;30.88;;;;;;;7.42;55.18;102214.31;5078114;28;20044;-76
2022/01/14 08:59:03;;;;;;;74.05;31.35;;;;;;;8.01;53.37;102221.91;5077653;28;20113;-76
2022/01/14 09:01:31;;;;;;;75.03;32.28;;;;;;;8.10;53.14;102216.78;5079117;28;20040;-76
2022/01/14 09:03:59;;;;;;;77.00;31.70;;;;;;;7.62;54.74;102221.84;5079306;28;20052;-75
2022/01/14 09:06:25;;;;;;;83.28;30.08;;;;;;;7.62;54.23;102211.16;5077673;28;20501;-75
2022/01/14 09:08:51;;;;;;;72.88;29.77;;;;;;;7.89;54.04;102208.44;5078114;28;20486;-75
2022/01/14 09:11:18;;;;;;;80.85;30.58;;;;;;;8.28;52.79;102209.28;5078570;28;20469;-76
2022/01/14 09:13:45;;;;;;;75.20;29.50;;;;;;;7.87;53.65;102206.81;5080190;28;20104;-75
2022/01/14 09:16:12;;;;;;;75.65;29.55;;;;;;;8.02;53.35;102203.09;5078294;28;20048;-76
2022/01/14 09:18:39;;;;;;;63.17;28.50;;;;;;;7.94;53.94;102193.91;5077122;28;20366;-76
2022/01/14 09:21:05;;;;;;;68.00;28.08;;;;;;;8.01;53.45;102196.03;5078186;28;20123;-76
2022/01/14 09:23:33;;;;;;;79.20;29.20;;;;;;;7.24;55.20;102194.19;5077237;28;20100;-75
2022/01/14 09:26:00;;;;;;;67.55;27.75;;;;;;;7.40;54.94;102198.41;5079000;28;20060;-76
2022/01/14 09:28:28;;;;;;;76.88;28.73;;;;;;;7.93;53.36;102198.38;5076769;28;20230;-76
2022/01/14 09:30:55;;;;;;;57.78;27.10;;;;;;;7.29;55.30;102200.06;5075934;28;20370;-76
2022/01/14 09:33:22;;;;;;;72.45;29.00;;;;;;;7.34;54.89;102192.63;5076399;28;20379;-76
2022/01/14 09:35:51;;;;;;;62.75;26.45;;;;;;;7.16;55.26;102197.38;5077682;28;20127;-75
2022/01/14 09:38:18;;;;;;;63.55;27.10;;;;;;;7.75;53.89;102211.19;5076367;28;20143;-77
2022/01/14 09:40:49;;;;;;;63.95;25.95;;;;;;;7.88;53.32;102196.03;5076495;28;20445;-75
2022/01/14 09:43:16;;;;;;;62.05;25.50;;;;;;;7.98;53.32;102200.72;5075851;28;20044;-74
2022/01/14 09:46:00;;;;;;;68.88;27.17;;;;;;;7.75;53.71;102196.97;5076892;28;20449;-74
2022/01/14 09:48:27;;;;;;;61.10;25.25;;;;;;;7.92;53.32;102188.66;5077300;28;20098;-75
2022/01/14 09:50:53;;;;;;;61.35;25.27;;;;;;;7.78;53.35;102196.75;5077180;28;20044;-75
2022/01/14 09:53:20;;;;;;;62.42;25.70;;;;;;;8.05;52.94;102196.66;5076270;28;20580;-75
2022/01/14 09:55:46;;;;;;;57.88;24.73;;;;;;;8.00;53.34;102188.97;5077817;28;20196;-77
2022/01/14 09:58:13;;;;;;;55.50;23.73;;;;;;;8.22;52.44;102184.78;5075840;28;20044;-76
2022/01/14 10:00:39;;;;;;;61.40;22.83;;;;;;;8.05;52.73;102191.31;5073198;28;20072;-76
2022/01/14 10:03:24;;;;;;;59.15;22.23;;;;;;;8.29;52.27;102183.38;5076120;28;20051;-77
2022/01/14 10:05:56;;;;;;;51.00;22.67;;;;;;;7.64;53.83;102179.00;5073745;28;20385;-75
2022/01/14 10:08:26;;;;;;;51.05;21.73;;;;;;;7.89;53.13;102175.53;5074257;28;20402;-76
2022/01/14 10:10:59;;;;;;;51.70;21.52;;;;;;;7.93;53.07;102170.81;5073961;28;20445;-76
2022/01/14 10:13:31;;;;;;;58.70;22.00;;;;;;;7.71;54.23;102172.28;5073010;28;20052;-76
2022/01/14 10:16:06;;;;;;;49.70;21.02;;;;;;;7.43;54.60;102168.84;5074317;28;20482;-76
2022/01/14 10:18:34;;;;;;;55.17;20.42;;;;;;;7.49;54.72;102178.22;5057532;28;20396;-76
2022/01/14 10:21:05;;;;;;;50.60;22.67;;;;;;;7.41;55.11;102180.56;5073009;28;20399;-76
2022/01/14 10:24:01;;;;;;;47.08;20.85;;;;;;;8.38;52.36;102182.72;5074996;28;20115;-75
2022/01/14 10:26:45;;;;;;;46.78;19.92;;;;;;;8.53;52.16;102184.28;5040093;28;20497;-76
2022/01/14 10:29:12;;;;;;;45.55;19.52;;;;;;;8.08;52.46;102189.28;5054773;28;20063;-75
2022/01/14 10:31:43;;;;;;;48.65;18.38;;;;;;;8.38;52.32;102194.28;5055290;28;20509;-75
2022/01/14 10:34:15;;;;;;;52.58;19.27;;;;;;;8.31;51.97;102185.00;5056145;28;20041;-76
2022/01/14 10:36:46;;;;;;;47.15;20.10;;;;;;;7.98;53.20;102193.56;5055637;28;20127;-75
2022/01/14 10:39:26;;;;;;;56.67;21.73;;;;;;;8.55;51.44;102189.53;5046238;28;20104;-76
2022/01/14 10:41:55;;;;;;;43.08;18.13;;;;;;;8.35;52.40;102183.81;5056384;28;20442;-77
2022/01/14 10:44:30;;;;;;;49.20;17.63;;;;;;;8.20;52.85;102178.72;5057682;28;20049;-78
2022/01/14 10:47:10;;;;;;;46.50;17.90;;;;;;;7.94;53.27;102167.16;5056967;28;20485;-78
2022/01/14 10:49:37;;;;;;;50.13;18.52;;;;;;;8.32;52.15;102177.81;5057174;28;20060;-78
2022/01/14 10:52:24;;;;;;;45.67;16.75;;;;;;;8.14;52.43;102175.50;5058325;28;20430;-77
2022/01/14 10:54:54;;;;;;;45.03;18.13;;;;;;;8.17;52.85;102168.22;5057614;28;20103;-77
2022/01/14 10:57:25;;;;;;;40.58;17.17;;;;;;;8.41;52.06;102170.97;5057434;28;20068;-78
2022/01/14 11:00:12;;;;;;;43.83;16.48;;;;;;;8.52;51.97;102163.88;5056568;28;20565;-77
2022/01/14 11:02:42;;;;;;;41.85;17.10;;;;;;;9.00;50.92;102163.91;5055836;28;20045;-77
2022/01/14 11:05:15;;;;;;;40.17;17.23;;;;;;;8.20;52.62;102155.50;5055257;28;20543;-77
2022/01/14 11:07:45;;;;;;;48.00;17.60;;;;;;;8.87;51.21;102163.09;5056673;28;20047;-77
2022/01/14 11:10:33;;;;;;;31.83;15.30;;;;;;;8.79;50.83;102162.81;5056576;28;20071;-78
2022/01/14 11:13:02;;;;;;;43.40;16.02;;;;;;;8.99;50.25;102161.31;5055978;28;20048;-77
2022/01/14 11:15:31;;;;;;;42.50;16.95;;;;;;;9.35;49.77;102171.13;5057546;28;20509;-77
2022/01/14 11:18:00;;;;;;;42.58;15.70;;;;;;;8.41;51.93;102179.00;5055615;28;20077;-77
2022/01/14 11:20:36;;;;;;;42.20;15.90;;;;;;;8.61;51.59;102176.59;5057209;28;20493;-78
2022/01/14 11:23:14;;;;;;;50.33;15.77;;;;;;;8.40;52.09;102174.59;5050910;28;20048;-78
2022/01/14 11:26:00;;;;;;;37.17;14.30;;;;;;;8.98;50.77;102173.84;5055882;28;20460;-77
2022/01/14 11:28:30;;;;;;;31.10;14.50;;;;;;;9.05;50.84;102164.38;5069331;28;20045;-77
2022/01/14 11:30:57;;;;;;;42.95;16.17;;;;;;;8.35;52.31;102156.22;5074169;28;20076;-78
2022/01/14 11:33:39;;;;;;;38.78;14.75;;;;;;;8.83;51.89;102150.91;5074905;28;20045;-78
2022/01/14 11:36:07;;;;;;;;;;;;;;;8.43;52.63;102159.16;5075830;28;20586;-78
2022/01/14 11:38:47;;;;;;;42.28;17.38;;;;;;;9.25;50.68;102146.84;5075597;28;20030;-77
2022/01/14 11:41:16;;;;;;;40.78;16.27;;;;;;;8.56;51.88;102149.28;5077153;28;20460;-77
2022/01/14 11:43:53;;;;;;;43.45;16.73;;;;;;;8.25;53.33;102131.09;5076148;28;20041;-77
2022/01/14 11:46:32;;;;;;;44.65;15.02;;;;;;;8.79;51.72;102131.56;5075686;28;20048;-78
2022/01/14 11:49:00;;;;;;;39.40;14.50;;;;;;;8.67;51.70;102120.91;5076271;28;20041;-77